Shallowater, Texas
Current Conditions -  °F | °C
As of 12:53 AM on Monday 24 Nov 2014 (Local Time) from KLBB Reporting Station
Clear Clear  
Wind Chill: 26°   Ceiling: Unl
Heat Index: 34°   Visibility: 10mi
Dew Point: 28°   Wind: 10mph
Humidity: 79%   Direction: 320°NW
Pressure: 29.96"   Gusts: NA
Location:  33.69°N, 102°W
Report Text: KLBB 240653Z 32009KT 10SM CLR 01/M02 A2996 RMK AO2 SLP128 T00111022
Loading
Personal Weather Stations






























Interactive Weather Map New forecast layout! Learn more

10-Day Weather Forecast

Advertisements
Track Severe Weather on mobile